createdAt,value
2022-10-14T00:01:50.585Z,86.72
2022-10-14T00:03:54.615Z,86.91
2022-10-14T00:05:57.349Z,87.02
2022-10-14T00:08:00.023Z,86.87
2022-10-14T00:10:02.757Z,85.91
2022-10-14T00:12:06.837Z,85.90
2022-10-14T00:14:13.228Z,85.96
2022-10-14T00:16:18.053Z,85.70
2022-10-14T00:18:20.617Z,86.05
2022-10-14T00:20:23.168Z,86.33
2022-10-14T00:22:26.258Z,86.30
2022-10-14T00:24:28.870Z,86.25
2022-10-14T00:26:34.441Z,86.36
2022-10-14T00:28:38.397Z,85.95
2022-10-14T00:30:41.035Z,85.77
2022-10-14T00:32:43.673Z,85.96
2022-10-14T00:34:46.233Z,86.47
2022-10-14T00:36:49.111Z,86.95
2022-10-14T00:38:52.696Z,86.15
2022-10-14T00:40:56.897Z,84.88
2022-10-14T00:42:59.468Z,85.47
2022-10-14T00:45:12.849Z,86.18
2022-10-14T00:47:15.567Z,86.35
2022-10-14T00:49:21.623Z,86.50
2022-10-14T00:51:24.397Z,86.40
2022-10-14T00:53:26.993Z,86.43
2022-10-14T00:55:30.156Z,86.68
2022-10-14T00:57:33.072Z,86.87
2022-10-14T00:59:35.934Z,86.58
2022-10-14T01:01:40.247Z,87.10
2022-10-14T01:03:44.582Z,87.50
2022-10-14T01:06:00.788Z,87.41
2022-10-14T01:08:10.173Z,87.51
2022-10-14T01:10:20.777Z,87.69
2022-10-14T01:12:33.966Z,87.12
2022-10-14T01:14:45.485Z,87.07
2022-10-14T01:16:58.551Z,86.97
2022-10-14T01:19:15.519Z,87.03
2022-10-14T01:21:23.916Z,86.97
2022-10-14T01:24:05.074Z,86.73
2022-10-14T01:26:22.567Z,87.15
2022-10-14T01:28:30.476Z,87.17
2022-10-14T01:30:37.398Z,87.49
2022-10-14T01:32:51.465Z,87.79
2022-10-14T01:35:01.698Z,87.65
2022-10-14T01:37:09.975Z,87.86
2022-10-14T01:39:19.258Z,87.78
2022-10-14T01:41:27.305Z,87.94
2022-10-14T01:43:32.978Z,87.62
2022-10-14T01:45:41.820Z,87.56
2022-10-14T01:47:45.719Z,87.53
2022-10-14T01:49:54.164Z,87.58
2022-10-14T01:52:03.544Z,87.72
2022-10-14T01:54:12.170Z,87.72
2022-10-14T01:56:18.113Z,87.54
2022-10-14T01:58:22.452Z,87.66
2022-10-14T02:00:25.025Z,87.29
2022-10-14T02:02:29.024Z,87.44
2022-10-14T02:04:31.658Z,87.46
2022-10-14T02:06:38.478Z,87.58
2022-10-14T02:08:54.737Z,87.36
2022-10-14T02:11:10.636Z,87.42
2022-10-14T02:13:38.432Z,87.23
2022-10-14T02:15:50.550Z,86.97
2022-10-14T02:17:58.683Z,84.76
2022-10-14T02:20:05.874Z,85.49
2022-10-14T02:22:16.599Z,85.88
2022-10-14T02:24:23.890Z,86.43
2022-10-14T02:26:28.285Z,86.40
2022-10-14T02:28:32.734Z,86.74
2022-10-14T02:30:39.523Z,86.95
2022-10-14T02:32:43.853Z,87.35
2022-10-14T02:34:52.032Z,86.25
2022-10-14T02:36:56.513Z,86.48
2022-10-14T02:39:02.001Z,86.75
2022-10-14T02:41:08.772Z,86.80
2022-10-14T02:43:11.914Z,86.75
2022-10-14T02:45:16.720Z,86.80
2022-10-14T02:47:19.321Z,86.79
2022-10-14T02:49:22.088Z,86.78
2022-10-14T02:51:26.128Z,86.65
2022-10-14T02:53:28.749Z,86.77
2022-10-14T02:55:31.397Z,86.70
2022-10-14T02:57:34.047Z,86.54
2022-10-14T02:59:36.705Z,86.81
2022-10-14T03:01:39.324Z,86.76
2022-10-14T03:03:41.993Z,86.94
2022-10-14T03:05:44.634Z,86.95
2022-10-14T03:07:48.538Z,86.94
2022-10-14T03:09:51.154Z,86.97
2022-10-14T03:11:53.839Z,87.17
2022-10-14T03:13:56.445Z,87.38
2022-10-14T03:15:59.245Z,87.13
2022-10-14T03:18:01.814Z,87.26
2022-10-14T03:20:04.736Z,87.55
2022-10-14T03:22:07.299Z,87.83
2022-10-14T03:24:11.677Z,87.36
2022-10-14T03:26:14.354Z,87.29
2022-10-14T03:28:16.979Z,87.47
2022-10-14T03:30:19.596Z,87.52
2022-10-14T03:32:24.298Z,87.84
2022-10-14T03:34:26.980Z,87.93
2022-10-14T03:36:29.591Z,87.62
2022-10-14T03:38:32.127Z,87.48
2022-10-14T03:40:36.059Z,87.68
2022-10-14T03:42:38.697Z,87.55
2022-10-14T03:44:41.321Z,87.44
2022-10-14T03:46:43.927Z,87.23
2022-10-14T03:48:46.529Z,87.18
2022-10-14T03:50:49.825Z,87.28
2022-10-14T03:52:55.561Z,87.20
2022-10-14T03:54:58.514Z,87.15
2022-10-14T03:57:02.441Z,86.64
2022-10-14T03:59:05.088Z,87.10
2022-10-14T04:01:07.686Z,87.15
2022-10-14T04:03:11.504Z,87.16
2022-10-14T04:05:14.315Z,87.22
2022-10-14T04:07:16.928Z,86.91
2022-10-14T04:09:19.513Z,86.69
2022-10-14T04:11:22.136Z,87.17
2022-10-14T04:13:26.394Z,86.79
2022-10-14T04:15:29.025Z,86.83
2022-10-14T04:17:31.683Z,87.17
2022-10-14T04:19:34.349Z,87.26
2022-10-14T04:21:36.904Z,87.31
2022-10-14T04:23:39.749Z,87.03
2022-10-14T04:25:42.285Z,87.17
2022-10-14T04:27:44.955Z,87.02
2022-10-14T04:29:48.911Z,87.33
2022-10-14T04:31:51.547Z,87.33
2022-10-14T04:33:54.085Z,87.38
2022-10-14T04:36:00.327Z,87.55
2022-10-14T04:38:02.960Z,87.51
2022-10-14T04:40:06.541Z,87.27
2022-10-14T04:42:09.158Z,86.99
2022-10-14T04:44:12.012Z,87.21
2022-10-14T04:46:15.924Z,87.43
2022-10-14T04:48:21.110Z,87.53
2022-10-14T04:50:23.736Z,87.27
2022-10-14T04:52:26.546Z,87.39
2022-10-14T04:54:29.221Z,87.21
2022-10-14T04:56:31.883Z,87.19
2022-10-14T04:58:34.546Z,87.43
2022-10-14T05:00:37.131Z,87.47
2022-10-14T05:02:41.057Z,87.30
2022-10-14T05:04:43.601Z,87.07
2022-10-14T05:06:46.191Z,87.11
2022-10-14T05:08:48.988Z,87.37
2022-10-14T05:10:52.061Z,87.22
2022-10-14T05:12:56.753Z,86.99
2022-10-14T05:14:59.485Z,87.14
2022-10-14T05:17:02.101Z,87.72
2022-10-14T05:19:06.042Z,87.82
2022-10-14T05:21:08.716Z,87.68
2022-10-14T05:23:11.835Z,87.51
2022-10-14T05:25:14.539Z,87.33
2022-10-14T05:27:17.119Z,87.61
2022-10-14T05:29:19.658Z,87.65
2022-10-14T05:31:22.256Z,87.42
2022-10-14T05:33:25.212Z,87.82
2022-10-14T05:35:53.988Z,87.50
2022-10-14T05:37:57.030Z,87.90
2022-10-14T05:40:02.085Z,87.99
2022-10-14T05:42:04.935Z,87.74
2022-10-14T05:44:07.708Z,87.69
2022-10-14T05:46:10.298Z,87.55
2022-10-14T05:48:12.901Z,87.45
2022-10-14T05:50:16.121Z,87.12
2022-10-14T05:52:20.605Z,87.42
2022-10-14T05:54:23.444Z,87.20
2022-10-14T05:56:26.186Z,87.16
2022-10-14T05:58:28.770Z,86.77
2022-10-14T06:00:31.634Z,86.90
2022-10-14T06:02:36.605Z,87.26
2022-10-14T06:04:41.029Z,87.40
2022-10-14T06:06:43.688Z,87.37
2022-10-14T06:08:47.780Z,87.68
2022-10-14T06:10:50.436Z,87.93
2022-10-14T06:12:53.029Z,87.58
2022-10-14T06:14:57.486Z,87.56
2022-10-14T06:17:00.060Z,87.28
2022-10-14T06:19:02.660Z,86.85
2022-10-14T06:21:06.333Z,86.74
2022-10-14T06:23:08.937Z,86.77
2022-10-14T06:25:12.875Z,86.67
2022-10-14T06:27:15.479Z,86.47
2022-10-14T06:29:18.314Z,86.34
2022-10-14T06:31:20.888Z,86.30
2022-10-14T06:33:23.571Z,86.01
2022-10-14T06:35:26.200Z,86.11
2022-10-14T06:37:28.826Z,86.06
2022-10-14T06:39:31.447Z,85.75
2022-10-14T06:41:35.347Z,86.32
2022-10-14T06:43:38.062Z,86.38
2022-10-14T06:45:40.611Z,86.70
2022-10-14T06:47:43.285Z,87.18
2022-10-14T06:49:45.921Z,87.59
2022-10-14T06:51:48.484Z,88.16
2022-10-14T06:53:51.020Z,88.35
2022-10-14T06:55:58.602Z,88.33
2022-10-14T06:58:02.501Z,89.00
2022-10-14T07:00:06.655Z,88.98
2022-10-14T07:02:11.963Z,89.01
2022-10-14T07:04:14.574Z,88.88
2022-10-14T07:06:17.197Z,88.58
2022-10-14T07:08:19.795Z,88.23
2022-10-14T07:10:22.396Z,88.22
2022-10-14T07:12:25.252Z,88.58
2022-10-14T07:14:29.508Z,88.37
2022-10-14T07:16:33.144Z,87.80
2022-10-14T07:18:35.764Z,87.08
2022-10-14T07:20:38.387Z,86.65
2022-10-14T07:22:41.025Z,86.25
2022-10-14T07:24:43.670Z,86.08
2022-10-14T07:26:46.265Z,86.24
2022-10-14T07:28:48.896Z,86.33
2022-10-14T07:31:00.037Z,85.53
2022-10-14T07:33:03.135Z,83.68
2022-10-14T07:35:06.733Z,84.48
2022-10-14T07:37:09.345Z,84.44
2022-10-14T07:39:11.985Z,84.40
2022-10-14T07:41:18.164Z,84.15
2022-10-14T07:43:20.745Z,84.07
2022-10-14T07:45:23.373Z,84.08
2022-10-14T07:47:27.361Z,84.04
2022-10-14T07:49:30.208Z,83.78
2022-10-14T07:51:34.372Z,83.63
2022-10-14T07:53:38.127Z,82.96
2022-10-14T07:55:51.914Z,82.26
2022-10-14T07:57:54.593Z,80.76
2022-10-14T07:59:57.466Z,80.52
2022-10-14T08:02:00.113Z,80.37
2022-10-14T08:04:04.461Z,80.02
2022-10-14T08:06:07.553Z,79.75
2022-10-14T08:08:11.016Z,80.11
2022-10-14T08:10:13.739Z,78.70
2022-10-14T08:12:16.399Z,79.00
2022-10-14T08:14:18.996Z,79.46
2022-10-14T08:16:24.053Z,79.84
2022-10-14T08:18:27.038Z,79.79
2022-10-14T08:20:30.981Z,80.11
2022-10-14T08:22:33.623Z,78.45
2022-10-14T08:24:36.234Z,78.98
2022-10-14T08:26:41.274Z,79.52
2022-10-14T08:28:43.886Z,79.86
2022-10-14T08:30:48.105Z,79.96
2022-10-14T08:32:50.722Z,80.11
2022-10-14T08:34:55.621Z,78.66
2022-10-14T08:37:01.975Z,79.00
2022-10-14T08:39:05.748Z,79.35
2022-10-14T08:41:24.274Z,78.51
2022-10-14T08:43:32.019Z,78.80
2022-10-14T08:45:40.099Z,78.20
2022-10-14T08:47:46.616Z,77.38
2022-10-14T08:49:58.593Z,78.11
2022-10-14T08:52:06.771Z,78.54
2022-10-14T08:54:15.190Z,78.29
2022-10-14T08:56:19.230Z,78.75
2022-10-14T08:58:28.442Z,77.56
2022-10-14T09:00:33.153Z,77.47
2022-10-14T09:02:40.024Z,76.72
2022-10-14T09:04:42.721Z,77.40
2022-10-14T09:06:47.853Z,76.76
2022-10-14T09:08:55.730Z,77.15
2022-10-14T09:10:58.933Z,76.63
2022-10-14T09:13:18.156Z,76.78
2022-10-14T09:15:27.579Z,77.12
2022-10-14T09:17:37.843Z,77.39
2022-10-14T09:19:47.751Z,76.94
2022-10-14T09:21:53.264Z,75.90
2022-10-14T09:24:02.637Z,76.51
2022-10-14T09:26:12.370Z,77.10
2022-10-14T09:28:15.091Z,76.58
2022-10-14T09:30:19.598Z,77.03
2022-10-14T09:32:35.483Z,76.64
2022-10-14T09:34:42.368Z,76.09
2022-10-14T09:36:45.747Z,75.64
2022-10-14T09:38:52.484Z,76.17
2022-10-14T09:40:59.771Z,76.41
2022-10-14T09:43:07.803Z,75.97
2022-10-14T09:45:13.263Z,75.03
2022-10-14T09:47:19.097Z,74.74
2022-10-14T09:49:33.780Z,74.90
2022-10-14T09:51:36.918Z,75.20
2022-10-14T09:53:45.178Z,75.21
2022-10-14T09:55:49.666Z,74.37
2022-10-14T09:58:17.254Z,73.89
2022-10-14T10:00:28.532Z,73.99
2022-10-14T10:02:41.804Z,74.17
2022-10-14T10:04:47.290Z,74.65
2022-10-14T10:06:53.938Z,73.93
2022-10-14T10:08:58.481Z,73.56
2022-10-14T10:11:06.833Z,74.08
2022-10-14T10:13:23.379Z,72.86
2022-10-14T10:15:26.456Z,72.97
2022-10-14T10:17:32.665Z,73.32
2022-10-14T10:19:37.689Z,74.00
2022-10-14T10:21:40.250Z,74.40
2022-10-14T10:23:51.949Z,74.87
2022-10-14T10:25:54.526Z,73.99
2022-10-14T10:28:00.414Z,74.67
2022-10-14T10:30:21.670Z,74.09
2022-10-14T10:32:33.710Z,74.54
2022-10-14T10:35:03.010Z,74.46
2022-10-14T10:37:15.884Z,75.26
2022-10-14T10:39:27.524Z,75.69
2022-10-14T10:41:44.510Z,75.00
2022-10-14T10:44:08.203Z,74.78
2022-10-14T10:46:29.466Z,73.74
2022-10-14T10:48:39.945Z,74.09
2022-10-14T10:50:49.462Z,74.22
2022-10-14T10:53:07.112Z,74.22
2022-10-14T10:55:19.089Z,72.97
2022-10-14T10:57:34.707Z,72.36
2022-10-14T10:59:50.295Z,71.89
2022-10-14T11:02:06.195Z,71.20
2022-10-14T11:04:25.549Z,70.38
2022-10-14T11:06:52.385Z,69.30
2022-10-14T11:09:21.616Z,70.79
2022-10-14T11:11:42.068Z,73.02
2022-10-14T11:13:52.866Z,73.86
2022-10-14T11:16:01.455Z,74.00
2022-10-14T11:18:14.376Z,75.57
2022-10-14T11:20:27.678Z,76.37
2022-10-14T11:22:45.358Z,78.23
2022-10-14T11:24:58.688Z,77.83
2022-10-14T11:27:09.457Z,76.85
2022-10-14T11:29:29.561Z,75.38
2022-10-14T11:31:40.062Z,76.24
2022-10-14T11:33:58.123Z,76.85
2022-10-14T11:36:14.398Z,77.27
2022-10-14T11:38:32.716Z,77.66
2022-10-14T11:40:40.311Z,78.07
2022-10-14T11:42:54.454Z,77.98
2022-10-14T11:45:10.948Z,77.73
2022-10-14T11:47:19.146Z,77.49
2022-10-14T11:49:27.718Z,77.77
2022-10-14T11:51:36.112Z,77.32
2022-10-14T11:53:53.304Z,77.34
2022-10-14T11:56:03.860Z,76.35
2022-10-14T11:58:11.766Z,75.15
2022-10-14T12:00:51.584Z,74.71
2022-10-14T12:02:59.567Z,75.70
2022-10-14T12:05:12.565Z,74.48
2022-10-14T12:07:19.255Z,73.39
2022-10-14T12:09:28.975Z,74.05
2022-10-14T12:11:36.834Z,73.83
2022-10-14T12:13:44.447Z,72.90
2022-10-14T12:15:51.505Z,71.95
2022-10-14T12:17:58.503Z,71.12
2022-10-14T12:20:09.518Z,70.20
2022-10-14T12:22:18.862Z,70.44
2022-10-14T12:24:28.354Z,71.44
2022-10-14T12:26:46.617Z,68.31
2022-10-14T12:28:52.842Z,69.07
2022-10-14T12:31:36.487Z,69.42
2022-10-14T12:34:17.305Z,69.95
2022-10-14T12:36:33.350Z,68.15
2022-10-14T12:38:36.310Z,68.39
2022-10-14T12:40:40.562Z,68.20
2022-10-14T12:42:58.229Z,68.80
2022-10-14T12:45:02.750Z,68.01
2022-10-14T12:47:06.276Z,68.46
2022-10-14T12:49:18.568Z,68.10
2022-10-14T12:51:23.462Z,69.43
2022-10-14T12:53:29.833Z,69.54
2022-10-14T12:55:49.940Z,68.65
2022-10-14T12:57:55.605Z,68.81
2022-10-14T13:00:01.969Z,69.08
2022-10-14T13:02:20.356Z,69.46
2022-10-14T13:04:23.443Z,68.67
2022-10-14T13:06:36.349Z,69.58
2022-10-14T13:08:40.339Z,70.03
2022-10-14T13:10:48.292Z,70.87
2022-10-14T13:12:50.894Z,70.87
2022-10-14T13:14:59.250Z,70.73
2022-10-14T13:17:02.594Z,71.05
2022-10-14T13:19:06.194Z,71.85
2022-10-14T13:21:09.572Z,72.67
2022-10-14T13:23:31.082Z,73.00
2022-10-14T13:25:35.052Z,73.25
2022-10-14T13:27:43.634Z,73.55
2022-10-14T13:30:03.225Z,73.04
2022-10-14T13:32:17.117Z,72.45
2022-10-14T13:34:35.493Z,71.79
2022-10-14T13:36:43.880Z,72.16
2022-10-14T13:38:54.788Z,72.23
2022-10-14T13:40:59.602Z,72.71
2022-10-14T13:43:07.674Z,72.76
2022-10-14T13:45:14.217Z,73.21
2022-10-14T13:47:21.649Z,73.61
2022-10-14T13:49:34.402Z,74.48
2022-10-14T13:51:45.852Z,75.22
2022-10-14T13:53:52.912Z,75.15
2022-10-14T13:55:57.510Z,74.57
2022-10-14T13:58:13.481Z,74.05
2022-10-14T14:00:43.901Z,74.12
2022-10-14T14:02:50.391Z,74.22
2022-10-14T14:04:59.833Z,73.80
2022-10-14T14:07:18.686Z,74.25
2022-10-14T14:09:27.392Z,74.14
2022-10-14T14:11:34.040Z,74.25
2022-10-14T14:13:54.537Z,74.40
2022-10-14T14:16:00.164Z,74.11
2022-10-14T14:18:02.809Z,74.82
2022-10-14T14:20:11.171Z,75.02
2022-10-14T14:22:19.013Z,73.24
2022-10-14T14:24:25.108Z,73.42
2022-10-14T14:26:38.236Z,74.14
2022-10-14T14:28:42.330Z,74.79
2022-10-14T14:30:54.608Z,75.29
2022-10-14T14:33:00.556Z,75.49
2022-10-14T14:35:05.991Z,75.69
2022-10-14T14:39:31.842Z,76.37
2022-10-14T14:41:34.520Z,76.27
2022-10-14T14:43:41.198Z,76.37
2022-10-14T14:45:51.191Z,76.41
2022-10-14T14:47:57.279Z,76.18
2022-10-14T14:50:28.615Z,75.99
2022-10-14T14:52:24.549Z,75.45
2022-10-14T14:54:28.716Z,75.84
2022-10-14T14:56:35.683Z,76.50
2022-10-14T14:58:44.147Z,76.57
2022-10-14T15:00:47.215Z,76.22
2022-10-14T15:02:58.285Z,75.70
2022-10-14T15:05:02.780Z,75.78
2022-10-14T15:07:11.273Z,75.75
2022-10-14T15:09:15.851Z,75.78
2022-10-14T15:11:19.525Z,76.21
2022-10-14T15:13:32.100Z,76.92
2022-10-14T15:15:35.436Z,76.56
2022-10-14T15:17:39.690Z,75.60
2022-10-14T15:19:43.713Z,75.70
2022-10-14T15:21:47.742Z,76.73
2022-10-14T15:24:03.089Z,77.29
2022-10-14T15:26:06.809Z,77.51
2022-10-14T15:28:30.348Z,78.20
2022-10-14T15:30:55.781Z,78.59
2022-10-14T15:33:05.108Z,79.62
2022-10-14T15:35:14.092Z,79.99
2022-10-14T15:37:16.678Z,80.55
2022-10-14T15:39:19.535Z,81.57
2022-10-14T15:41:22.167Z,81.95
2022-10-14T15:43:26.036Z,82.52
2022-10-14T15:45:28.842Z,82.90
2022-10-14T15:47:30.680Z,83.14
2022-10-14T15:49:37.039Z,83.29
2022-10-14T15:51:43.519Z,83.97
2022-10-14T15:53:46.542Z,84.16
2022-10-14T15:55:53.824Z,84.87
2022-10-14T15:57:57.252Z,85.25
2022-10-14T15:59:59.801Z,86.11
2022-10-14T16:02:04.058Z,86.43
2022-10-14T16:04:15.454Z,86.94
2022-10-14T16:06:19.248Z,86.58
2022-10-14T16:08:23.282Z,86.69
2022-10-14T16:10:29.312Z,86.38
2022-10-14T16:12:36.098Z,86.82
2022-10-14T16:14:38.662Z,87.35
2022-10-14T16:16:43.595Z,87.68
2022-10-14T16:18:46.151Z,88.12
2022-10-14T16:20:49.140Z,88.54
2022-10-14T16:22:51.864Z,88.46
2022-10-14T16:24:56.073Z,88.31
2022-10-14T16:26:58.638Z,88.29
2022-10-14T16:29:03.284Z,88.48
2022-10-14T16:31:06.212Z,88.67
2022-10-14T16:33:08.859Z,88.55
2022-10-14T16:35:11.614Z,88.19
2022-10-14T16:37:14.238Z,88.18
2022-10-14T16:39:17.678Z,88.02
2022-10-14T16:41:21.620Z,88.28
2022-10-14T16:43:24.442Z,88.10
2022-10-14T16:45:27.315Z,88.03
2022-10-14T16:47:29.889Z,88.00
2022-10-14T16:49:32.447Z,87.79
2022-10-14T16:51:35.006Z,87.43
2022-10-14T16:53:44.980Z,85.77
2022-10-14T16:55:47.727Z,86.13
2022-10-14T16:57:51.670Z,86.34
2022-10-14T16:59:54.281Z,86.56
2022-10-14T17:01:56.893Z,86.82
2022-10-14T17:04:00.126Z,86.60
2022-10-14T17:06:02.652Z,86.66
2022-10-14T17:08:05.393Z,86.78
2022-10-14T17:10:08.896Z,87.02
2022-10-14T17:12:13.812Z,87.26
2022-10-14T17:14:21.772Z,87.55
2022-10-14T17:16:24.728Z,87.77
2022-10-14T17:18:30.993Z,86.98
2022-10-14T17:20:36.346Z,87.06
2022-10-14T17:22:39.189Z,87.00
2022-10-14T17:24:41.756Z,86.89
2022-10-14T17:26:45.370Z,86.96
2022-10-14T17:28:49.039Z,87.07
2022-10-14T17:30:53.408Z,87.15
2022-10-14T17:32:56.036Z,87.40
2022-10-14T17:34:58.585Z,87.23
2022-10-14T17:37:01.302Z,87.15
2022-10-14T17:39:04.672Z,87.36
2022-10-14T17:41:09.130Z,87.28
2022-10-14T17:43:11.672Z,87.09
2022-10-14T17:45:14.306Z,87.04
2022-10-14T17:47:19.143Z,86.88
2022-10-14T17:49:21.912Z,86.88
2022-10-14T17:51:26.041Z,86.64
2022-10-14T17:53:28.937Z,85.80
2022-10-14T17:55:31.498Z,85.43
2022-10-14T17:57:34.061Z,84.98
2022-10-14T17:59:36.633Z,82.57
2022-10-14T18:04:03.910Z,79.00
2022-10-14T18:06:10.823Z,79.01
2022-10-14T18:08:14.298Z,79.45
2022-10-14T18:10:17.005Z,79.12
2022-10-14T18:12:20.188Z,79.22
2022-10-14T18:14:22.752Z,80.11
2022-10-14T18:16:27.021Z,80.53
2022-10-14T18:18:30.821Z,80.84
2022-10-14T18:20:37.067Z,81.31
2022-10-14T18:22:40.596Z,82.00
2022-10-14T18:24:43.960Z,82.20
2022-10-14T18:26:46.557Z,82.18
2022-10-14T18:28:51.081Z,82.41
2022-10-14T18:30:53.713Z,82.92
2022-10-14T18:32:57.893Z,83.15
2022-10-14T18:35:00.463Z,83.52
2022-10-14T18:37:04.572Z,83.45
2022-10-14T18:39:09.557Z,83.43
2022-10-14T18:41:14.618Z,83.63
2022-10-14T18:43:17.187Z,83.64
2022-10-14T18:45:19.737Z,83.79
2022-10-14T18:47:22.499Z,83.87
2022-10-14T18:49:25.058Z,83.29
2022-10-14T18:51:29.463Z,81.71
2022-10-14T18:53:34.686Z,82.25
2022-10-14T18:55:41.671Z,80.93
2022-10-14T18:57:44.402Z,81.48
2022-10-14T18:59:47.245Z,81.96
2022-10-14T19:01:55.538Z,82.65
2022-10-14T19:03:58.449Z,83.22
2022-10-14T19:06:01.832Z,83.83
2022-10-14T19:08:05.229Z,83.65
2022-10-14T19:10:10.265Z,83.60
2022-10-14T19:12:26.761Z,84.11
2022-10-14T19:14:31.711Z,84.36
2022-10-14T19:16:38.721Z,84.37
2022-10-14T19:18:41.781Z,83.84
2022-10-14T19:20:45.437Z,83.93
2022-10-14T19:22:48.113Z,83.95
2022-10-14T19:24:51.919Z,83.78
2022-10-14T19:26:56.976Z,84.09
2022-10-14T19:29:00.538Z,83.17
2022-10-14T19:31:06.248Z,84.08
2022-10-14T19:33:08.887Z,83.09
2022-10-14T19:35:11.590Z,83.13
2022-10-14T19:37:14.224Z,83.42
2022-10-14T19:39:19.071Z,83.30
2022-10-14T19:41:22.411Z,83.24
2022-10-14T19:43:26.419Z,83.70
2022-10-14T19:45:28.983Z,84.14
2022-10-14T19:47:31.557Z,83.10
2022-10-14T19:49:34.578Z,84.09
2022-10-14T19:51:37.244Z,83.90
2022-10-14T19:53:40.165Z,82.28
2022-10-14T19:55:43.197Z,82.90
2022-10-14T19:57:46.485Z,82.66
2022-10-14T19:59:50.950Z,83.35
2022-10-14T20:01:53.851Z,82.24
2022-10-14T20:03:57.974Z,82.88
2022-10-14T20:06:01.209Z,83.67
2022-10-14T20:08:04.111Z,83.93
2022-10-14T20:10:07.824Z,84.45
2022-10-14T20:12:10.836Z,83.19
2022-10-14T20:14:14.514Z,83.22
2022-10-14T20:16:21.172Z,82.97
2022-10-14T20:18:26.101Z,83.08
2022-10-14T20:20:29.580Z,83.69
2022-10-14T20:22:33.302Z,84.14
2022-10-14T20:24:39.894Z,83.68
2022-10-14T20:26:46.858Z,84.22
2022-10-14T20:28:50.447Z,84.13
2022-10-14T20:30:54.191Z,84.49
2022-10-14T20:32:58.104Z,84.79
2022-10-14T20:35:00.741Z,85.07
2022-10-14T20:37:03.960Z,85.30
2022-10-14T20:39:06.580Z,84.66
2022-10-14T20:41:12.968Z,85.05
2022-10-14T20:43:15.531Z,85.65
2022-10-14T20:45:18.188Z,84.69
2022-10-14T20:47:21.174Z,84.92
2022-10-14T20:49:25.394Z,85.18
2022-10-14T20:51:28.139Z,85.11
2022-10-14T20:53:31.077Z,85.72
2022-10-14T20:55:33.819Z,84.81
2022-10-14T20:57:36.674Z,85.13
2022-10-14T20:59:41.560Z,85.80
2022-10-14T21:01:44.200Z,86.43
2022-10-14T21:03:47.728Z,86.94
2022-10-14T21:05:52.109Z,87.45
2022-10-14T21:07:54.731Z,87.85
2022-10-14T21:09:57.353Z,86.04
2022-10-14T21:11:59.952Z,85.59
2022-10-14T21:14:02.535Z,86.33
2022-10-14T21:16:14.573Z,86.59
2022-10-14T21:18:17.220Z,85.63
2022-10-14T21:20:19.830Z,86.29
2022-10-14T21:22:24.088Z,86.37
2022-10-14T21:24:26.904Z,86.51
2022-10-14T21:26:30.846Z,86.62
2022-10-14T21:28:33.482Z,87.21
2022-10-14T21:30:36.232Z,87.67
2022-10-14T21:32:38.864Z,87.81
2022-10-14T21:34:41.452Z,88.07
2022-10-14T21:36:44.761Z,87.79
2022-10-14T21:38:48.770Z,87.46
2022-10-14T21:40:51.386Z,87.90
2022-10-14T21:42:53.972Z,88.49
2022-10-14T21:44:56.532Z,88.15
2022-10-14T21:46:59.100Z,88.74
2022-10-14T21:49:01.677Z,89.08
2022-10-14T21:51:05.452Z,89.44
2022-10-14T21:53:11.325Z,89.27
2022-10-14T21:55:17.988Z,89.23
2022-10-14T21:57:20.784Z,89.73
2022-10-14T21:59:23.555Z,89.87
2022-10-14T22:01:27.950Z,90.05
2022-10-14T22:03:30.986Z,90.08
2022-10-14T22:05:35.383Z,90.24
2022-10-14T22:07:37.966Z,90.43
2022-10-14T22:09:40.543Z,90.13
2022-10-14T22:11:44.695Z,90.28
2022-10-14T22:13:47.589Z,90.48
2022-10-14T22:15:50.364Z,90.59
2022-10-14T22:17:53.543Z,90.84
2022-10-14T22:19:56.183Z,90.73
2022-10-14T22:22:01.240Z,91.19
2022-10-14T22:24:04.538Z,91.36
2022-10-14T22:26:09.548Z,91.42
2022-10-14T22:28:13.470Z,91.57
2022-10-14T22:30:16.395Z,91.96
2022-10-14T22:32:18.986Z,92.05
2022-10-14T22:34:21.563Z,91.88
2022-10-14T22:36:27.888Z,91.52
2022-10-14T22:38:30.467Z,91.88
2022-10-14T22:40:34.581Z,92.24
2022-10-14T22:42:39.188Z,91.86
2022-10-14T22:44:46.397Z,92.33
2022-10-14T22:46:49.012Z,92.38
2022-10-14T22:48:55.980Z,92.40
2022-10-14T22:51:03.098Z,92.27
2022-10-14T22:53:05.711Z,92.03
2022-10-14T22:55:10.000Z,91.98
2022-10-14T22:57:12.613Z,91.70
2022-10-14T22:59:15.370Z,91.59
2022-10-14T23:01:21.219Z,92.01
2022-10-14T23:03:23.823Z,92.18
2022-10-14T23:05:26.399Z,91.96
2022-10-14T23:07:29.718Z,92.28
2022-10-14T23:09:32.401Z,92.04
2022-10-14T23:11:35.066Z,92.32
2022-10-14T23:13:37.646Z,92.27
2022-10-14T23:15:40.241Z,92.32
2022-10-14T23:17:44.165Z,92.39
2022-10-14T23:19:47.839Z,91.93
2022-10-14T23:21:50.407Z,92.14
2022-10-14T23:23:54.423Z,92.50
2022-10-14T23:25:57.038Z,92.61
2022-10-14T23:27:59.622Z,92.21
2022-10-14T23:30:02.213Z,92.32
2022-10-14T23:32:05.062Z,91.81
2022-10-14T23:34:12.229Z,92.07
2022-10-14T23:36:15.805Z,92.17
2022-10-14T23:38:18.470Z,91.69
2022-10-14T23:40:21.077Z,91.51
2022-10-14T23:42:23.782Z,91.19
2022-10-14T23:44:26.401Z,91.32
2022-10-14T23:46:28.968Z,91.49
2022-10-14T23:48:31.541Z,90.12
2022-10-14T23:50:35.497Z,90.85
2022-10-14T23:52:38.077Z,91.21
2022-10-14T23:54:40.773Z,91.46
2022-10-14T23:56:43.359Z,91.73
2022-10-14T23:58:45.941Z,91.79
